createdAt,value
2017-06-13T00:02:15.248Z,3.97
2017-06-13T00:04:43.694Z,4.23
2017-06-13T00:07:12.100Z,4.27
2017-06-13T00:09:40.503Z,4.57
2017-06-13T00:12:08.968Z,5.17
2017-06-13T00:14:37.417Z,4.20
2017-06-13T00:17:05.878Z,3.80
2017-06-13T00:19:35.108Z,4.07
2017-06-13T00:22:03.549Z,3.70
2017-06-13T00:24:32.750Z,3.77
2017-06-13T00:27:02.014Z,4.17
2017-06-13T00:29:30.448Z,4.57
2017-06-13T00:31:58.891Z,3.70
2017-06-13T00:34:27.343Z,4.17
2017-06-13T00:36:55.773Z,4.30
2017-06-13T00:39:24.261Z,4.93
2017-06-13T00:41:52.712Z,4.70
2017-06-13T00:44:21.904Z,4.60
2017-06-13T00:46:50.315Z,3.70
2017-06-13T00:49:18.775Z,4.23
2017-06-13T00:51:47.967Z,3.63
2017-06-13T00:54:17.167Z,4.53
2017-06-13T00:56:46.369Z,4.30
2017-06-13T00:59:15.728Z,4.10
2017-06-13T01:01:44.140Z,4.50
2017-06-13T01:04:13.332Z,4.17
2017-06-13T01:06:42.530Z,3.40
2017-06-13T01:09:10.950Z,3.30
2017-06-13T01:11:39.404Z,4.10
2017-06-13T01:14:08.585Z,4.27
2017-06-13T01:16:37.757Z,3.60
2017-06-13T01:19:06.202Z,4.10
2017-06-13T01:21:34.648Z,3.60
2017-06-13T01:24:03.849Z,3.33
2017-06-13T01:26:33.042Z,3.40
2017-06-13T01:29:02.219Z,3.90
2017-06-13T01:31:30.625Z,3.93
2017-06-13T01:33:58.721Z,4.13
2017-06-13T01:36:27.144Z,4.33
2017-06-13T01:38:55.573Z,3.30
2017-06-13T01:41:24.008Z,4.20
2017-06-13T01:43:51.722Z,3.30
2017-06-13T01:46:20.139Z,3.53
2017-06-13T01:48:48.587Z,3.00
2017-06-13T01:51:16.733Z,3.37
2017-06-13T01:53:45.145Z,3.07
2017-06-13T01:56:13.236Z,3.10
2017-06-13T01:58:41.656Z,3.77
2017-06-13T02:01:10.127Z,3.37
2017-06-13T02:03:39.344Z,2.93
2017-06-13T02:06:07.771Z,3.23
2017-06-13T02:08:36.191Z,3.20
2017-06-13T02:11:04.636Z,3.30
2017-06-13T02:13:33.066Z,3.10
2017-06-13T02:16:01.496Z,3.47
2017-06-13T02:18:29.946Z,2.93
2017-06-13T02:20:58.351Z,3.37
2017-06-13T02:23:26.778Z,2.77
2017-06-13T02:25:55.221Z,2.97
2017-06-13T02:28:24.407Z,3.40
2017-06-13T02:30:52.818Z,3.77
2017-06-13T02:33:21.256Z,3.77
2017-06-13T02:35:49.668Z,3.10
2017-06-13T02:38:18.844Z,3.53
2017-06-13T02:40:47.274Z,3.13
2017-06-13T02:43:15.683Z,3.40
2017-06-13T02:45:44.119Z,3.30
2017-06-13T02:48:12.549Z,3.30
2017-06-13T02:50:40.955Z,3.63
2017-06-13T02:53:10.119Z,3.33
2017-06-13T02:55:38.538Z,4.00
2017-06-13T02:58:06.957Z,3.67
2017-06-13T03:00:35.015Z,4.33
2017-06-13T03:03:03.448Z,4.23
2017-06-13T03:05:32.661Z,3.40
2017-06-13T03:08:01.074Z,4.00
2017-06-13T03:10:29.628Z,3.73
2017-06-13T03:12:58.045Z,4.07
2017-06-13T03:15:26.443Z,4.07
2017-06-13T03:17:54.903Z,3.70
2017-06-13T03:20:23.333Z,4.00
2017-06-13T03:22:52.513Z,3.60
2017-06-13T03:25:21.744Z,3.63
2017-06-13T03:27:50.161Z,3.40
2017-06-13T03:30:18.568Z,3.83
2017-06-13T03:32:47.788Z,3.67
2017-06-13T03:35:16.204Z,3.90
2017-06-13T03:37:44.607Z,3.13
2017-06-13T03:40:13.039Z,3.30
2017-06-13T03:42:41.456Z,3.93
2017-06-13T03:45:09.865Z,3.80
2017-06-13T03:47:39.068Z,3.43
2017-06-13T03:50:08.300Z,3.83
2017-06-13T03:52:36.727Z,3.33
2017-06-13T03:55:05.164Z,4.10
2017-06-13T03:57:33.581Z,3.87
2017-06-13T04:00:02.005Z,3.80
2017-06-13T04:02:30.429Z,4.30
2017-06-13T04:04:58.841Z,4.20
2017-06-13T04:07:28.022Z,5.40
2017-06-13T04:09:57.227Z,4.80
2017-06-13T04:12:25.631Z,5.47
2017-06-13T04:14:54.044Z,5.70
2017-06-13T04:17:22.495Z,6.33
2017-06-13T04:19:50.926Z,6.20
2017-06-13T04:22:19.336Z,7.07
2017-06-13T04:24:48.026Z,7.60
2017-06-13T04:27:16.444Z,7.80
2017-06-13T04:29:44.856Z,7.60
2017-06-13T04:32:14.071Z,9.63
2017-06-13T04:34:42.501Z,8.20
2017-06-13T04:37:10.917Z,8.67
2017-06-13T04:39:40.127Z,8.10
2017-06-13T04:42:08.539Z,7.77
2017-06-13T04:44:36.964Z,7.50
2017-06-13T04:47:05.395Z,7.20
2017-06-13T04:49:33.812Z,7.90
2017-06-13T04:52:02.235Z,8.90
2017-06-13T04:54:30.665Z,8.10
2017-06-13T04:56:59.067Z,6.63
2017-06-13T04:59:28.273Z,8.37
2017-06-13T05:01:56.711Z,8.13
2017-06-13T05:04:25.120Z,8.90
2017-06-13T05:06:54.296Z,8.50
2017-06-13T05:09:22.741Z,7.00
2017-06-13T05:11:51.148Z,8.13
2017-06-13T05:14:19.574Z,8.10
2017-06-13T05:16:48.006Z,5.50
2017-06-13T05:19:16.416Z,4.80
2017-06-13T05:21:45.600Z,6.90
2017-06-13T05:24:14.832Z,8.40
2017-06-13T05:26:43.236Z,5.60
2017-06-13T05:29:11.651Z,5.37
2017-06-13T05:31:40.972Z,5.27
2017-06-13T05:34:09.393Z,4.67
2017-06-13T05:36:37.800Z,8.07
2017-06-13T05:39:06.297Z,6.30
2017-06-13T05:41:35.493Z,4.50
2017-06-13T05:44:04.680Z,5.73
2017-06-13T05:46:33.189Z,5.17
2017-06-13T05:49:01.667Z,5.27
2017-06-13T05:51:30.075Z,5.17
2017-06-13T05:53:58.502Z,5.60
2017-06-13T05:56:29.074Z,5.97
2017-06-13T05:58:57.516Z,6.43
2017-06-13T06:01:27.394Z,6.83
2017-06-13T06:03:55.833Z,5.60
2017-06-13T06:06:24.260Z,6.47
2017-06-13T06:08:52.704Z,6.80
2017-06-13T06:11:21.120Z,5.00
2017-06-13T06:13:49.539Z,7.93
2017-06-13T06:16:17.965Z,5.23
2017-06-13T06:18:46.384Z,5.70
2017-06-13T06:21:15.570Z,4.17
2017-06-13T06:23:44.815Z,4.63
2017-06-13T06:26:13.266Z,4.80
2017-06-13T06:28:42.456Z,4.57
2017-06-13T06:31:11.691Z,5.17
2017-06-13T06:33:40.100Z,4.70
2017-06-13T06:36:08.513Z,6.00
2017-06-13T06:38:37.721Z,4.70
2017-06-13T06:41:06.122Z,3.80
2017-06-13T06:43:34.550Z,5.70
2017-06-13T06:46:02.990Z,5.27
2017-06-13T06:48:31.395Z,5.67
2017-06-13T06:50:59.800Z,5.70
2017-06-13T06:53:29.011Z,5.20
2017-06-13T06:55:57.483Z,5.73
2017-06-13T06:58:25.896Z,4.53
2017-06-13T07:00:54.337Z,4.97
2017-06-13T07:03:23.528Z,5.90
2017-06-13T07:05:52.754Z,8.00
2017-06-13T07:08:22.631Z,4.63
2017-06-13T07:10:51.812Z,5.70
2017-06-13T07:13:20.227Z,4.70
2017-06-13T07:15:48.669Z,3.63
2017-06-13T07:18:17.076Z,5.27
2017-06-13T07:20:46.265Z,4.10
2017-06-13T07:23:15.460Z,5.27
2017-06-13T07:25:44.640Z,4.93
2017-06-13T07:28:13.050Z,4.43
2017-06-13T07:30:41.481Z,5.40
2017-06-13T07:33:09.907Z,5.60
2017-06-13T07:35:39.093Z,5.13
2017-06-13T07:38:08.325Z,5.50
2017-06-13T07:40:36.795Z,5.07
2017-06-13T07:43:05.205Z,4.80
2017-06-13T07:45:33.644Z,4.47
2017-06-13T07:48:02.080Z,4.87
2017-06-13T07:50:30.487Z,6.73
2017-06-13T07:52:59.683Z,5.20
2017-06-13T07:55:28.871Z,5.83
2017-06-13T07:57:58.048Z,4.50
2017-06-13T08:00:26.485Z,4.57
2017-06-13T08:02:54.907Z,4.80
2017-06-13T08:05:23.324Z,5.73
2017-06-13T08:07:51.755Z,4.93
2017-06-13T08:10:20.214Z,5.20
2017-06-13T08:12:48.657Z,4.77
2017-06-13T08:15:17.849Z,4.90
2017-06-13T08:17:47.026Z,4.70
2017-06-13T08:20:15.444Z,5.00
2017-06-13T08:22:43.920Z,4.73
2017-06-13T08:25:13.092Z,4.50
2017-06-13T08:27:41.497Z,4.10
2017-06-13T08:30:09.928Z,5.77
2017-06-13T08:32:38.457Z,5.20
2017-06-13T08:35:06.871Z,4.50
2017-06-13T08:37:35.321Z,4.70
2017-06-13T08:40:03.753Z,4.27
2017-06-13T08:42:32.171Z,3.80
2017-06-13T08:45:01.146Z,4.97
2017-06-13T08:47:29.603Z,5.40
2017-06-13T08:49:58.017Z,3.80
2017-06-13T08:52:26.485Z,4.10
2017-06-13T08:54:55.660Z,4.50
2017-06-13T08:57:24.080Z,4.07
2017-06-13T08:59:52.508Z,4.40
2017-06-13T09:02:20.918Z,4.10
2017-06-13T09:04:50.103Z,4.27
2017-06-13T09:07:19.356Z,3.30
2017-06-13T09:09:47.805Z,3.20
2017-06-13T09:12:16.214Z,4.00
2017-06-13T09:14:44.645Z,4.30
2017-06-13T09:17:13.840Z,3.90
2017-06-13T09:19:43.008Z,4.50
2017-06-13T09:22:11.436Z,4.30
2017-06-13T09:24:39.860Z,3.70
2017-06-13T09:27:08.279Z,3.37
2017-06-13T09:29:37.599Z,3.80
2017-06-13T09:32:06.017Z,2.87
2017-06-13T09:34:34.424Z,3.80
2017-06-13T09:37:03.625Z,3.60
2017-06-13T09:39:32.620Z,3.03
2017-06-13T09:42:01.608Z,3.60
2017-06-13T09:44:30.045Z,2.90
2017-06-13T09:46:58.488Z,3.80
2017-06-13T09:49:26.887Z,2.80
2017-06-13T09:51:55.333Z,4.00
2017-06-13T09:54:24.516Z,3.20
2017-06-13T09:56:53.736Z,3.03
2017-06-13T09:59:22.196Z,2.77
2017-06-13T10:01:51.380Z,2.80
2017-06-13T10:04:19.794Z,2.83
2017-06-13T10:06:48.216Z,2.93
2017-06-13T10:09:16.651Z,3.00
2017-06-13T10:11:45.162Z,3.03
2017-06-13T10:14:13.600Z,3.47
2017-06-13T10:16:42.028Z,3.30
2017-06-13T10:19:10.463Z,2.33
2017-06-13T10:21:39.658Z,2.53
2017-06-13T10:24:08.073Z,4.33
2017-06-13T10:26:36.521Z,14.10
2017-06-13T10:29:04.938Z,2.67
2017-06-13T10:31:33.368Z,4.47
2017-06-13T10:34:02.584Z,3.10
2017-06-13T10:36:31.000Z,2.40
2017-06-13T10:38:59.413Z,2.20
2017-06-13T10:41:28.724Z,2.20
2017-06-13T10:43:59.294Z,2.40
2017-06-13T10:46:27.735Z,2.87
2017-06-13T10:48:56.171Z,2.80
2017-06-13T10:51:24.581Z,4.23
2017-06-13T10:53:53.777Z,2.53
2017-06-13T10:56:22.978Z,3.10
2017-06-13T10:58:52.290Z,2.57
2017-06-13T11:01:21.578Z,2.77
2017-06-13T11:03:50.765Z,3.50
2017-06-13T11:06:19.960Z,3.17
2017-06-13T11:08:48.463Z,2.03
2017-06-13T11:11:16.909Z,2.97
2017-06-13T11:13:45.319Z,2.13
2017-06-13T11:16:13.725Z,2.77
2017-06-13T11:18:42.171Z,2.20
2017-06-13T11:21:11.348Z,1.93
2017-06-13T11:23:39.898Z,5.00
2017-06-13T11:26:08.376Z,9.57
2017-06-13T11:28:36.785Z,6.60
2017-06-13T11:31:05.313Z,3.97
2017-06-13T11:33:33.815Z,4.03
2017-06-13T11:36:02.308Z,3.90
2017-06-13T11:38:30.724Z,3.67
2017-06-13T11:40:59.905Z,3.80
2017-06-13T11:43:28.329Z,3.27
2017-06-13T11:45:56.735Z,3.40
2017-06-13T11:48:25.177Z,3.57
2017-06-13T11:50:53.597Z,3.00
2017-06-13T11:53:22.310Z,3.20
2017-06-13T11:55:51.512Z,3.70
2017-06-13T11:58:20.694Z,4.30
2017-06-13T12:00:49.263Z,4.43
2017-06-13T12:03:18.131Z,3.90
2017-06-13T12:05:46.569Z,4.33
2017-06-13T12:08:15.587Z,3.43
2017-06-13T12:10:44.003Z,4.03
2017-06-13T12:13:12.448Z,3.33
2017-06-13T12:15:40.853Z,3.10
2017-06-13T12:18:09.272Z,3.27
2017-06-13T12:20:38.472Z,4.50
2017-06-13T12:23:07.647Z,3.00
2017-06-13T12:25:36.081Z,3.23
2017-06-13T12:28:04.643Z,3.40
2017-06-13T12:30:33.244Z,4.50
2017-06-13T12:33:02.230Z,2.80
2017-06-13T12:35:30.656Z,3.97
2017-06-13T12:37:59.104Z,4.83
2017-06-13T12:40:27.523Z,8.37
2017-06-13T12:42:56.137Z,4.17
2017-06-13T12:45:24.683Z,3.80
2017-06-13T12:47:53.099Z,3.83
2017-06-13T12:50:21.605Z,3.93
2017-06-13T12:52:50.076Z,3.90
2017-06-13T12:55:18.516Z,6.10
2017-06-13T12:57:47.981Z,4.90
2017-06-13T13:00:16.735Z,6.37
2017-06-13T13:02:45.200Z,6.20
2017-06-13T13:05:14.469Z,5.10
2017-06-13T13:07:43.039Z,5.63
2017-06-13T13:10:11.457Z,5.07
2017-06-13T13:12:40.850Z,4.70
2017-06-13T13:15:10.537Z,4.30
2017-06-13T13:17:39.102Z,3.80
2017-06-13T13:20:07.848Z,4.73
2017-06-13T13:22:36.528Z,5.27
2017-06-13T13:25:04.997Z,4.87
2017-06-13T13:27:34.171Z,3.80
2017-06-13T13:30:02.510Z,5.17
2017-06-13T13:32:30.927Z,3.70
2017-06-13T13:34:59.348Z,4.00
2017-06-13T13:37:27.864Z,4.40
2017-06-13T13:39:56.338Z,3.77
2017-06-13T13:42:24.761Z,4.47
2017-06-13T13:44:53.961Z,3.80
2017-06-13T13:47:24.085Z,3.70
2017-06-13T13:49:52.522Z,3.80
2017-06-13T13:52:20.986Z,3.93
2017-06-13T13:54:49.429Z,3.77
2017-06-13T13:57:17.996Z,3.90
2017-06-13T13:59:47.198Z,3.37
2017-06-13T14:02:16.369Z,4.30
2017-06-13T14:04:45.848Z,3.70
2017-06-13T14:07:14.289Z,3.97
2017-06-13T14:09:42.729Z,4.07
2017-06-13T14:12:11.143Z,4.23
2017-06-13T14:14:45.905Z,4.47
2017-06-13T14:17:15.526Z,3.80
2017-06-13T14:19:44.029Z,3.60
2017-06-13T14:22:12.440Z,3.60
2017-06-13T14:24:40.864Z,4.00
2017-06-13T14:27:09.304Z,4.43
2017-06-13T14:29:37.728Z,8.30
2017-06-13T14:32:06.764Z,4.30
2017-06-13T14:34:35.236Z,5.00
2017-06-13T14:37:04.439Z,5.27
2017-06-13T14:39:33.609Z,3.93
2017-06-13T14:42:02.043Z,4.50
2017-06-13T14:44:30.464Z,4.53
2017-06-13T14:46:58.884Z,4.23
2017-06-13T14:49:27.124Z,5.27
2017-06-13T14:51:55.538Z,4.47
2017-06-13T14:54:23.943Z,5.60
2017-06-13T14:56:52.486Z,4.93
2017-06-13T14:59:20.908Z,4.77
2017-06-13T15:01:49.334Z,9.13
2017-06-13T15:04:18.533Z,6.20
2017-06-13T15:06:47.723Z,5.37
2017-06-13T15:09:16.907Z,5.33
2017-06-13T15:11:45.350Z,6.53
2017-06-13T15:14:13.785Z,5.20
2017-06-13T15:16:42.979Z,4.57
2017-06-13T15:19:12.202Z,5.47
2017-06-13T15:21:40.608Z,9.60
2017-06-13T15:24:09.025Z,5.13
2017-06-13T15:26:38.232Z,5.73
2017-06-13T15:29:07.430Z,5.17
2017-06-13T15:31:36.614Z,6.60
2017-06-13T15:34:05.061Z,6.33
2017-06-13T15:36:33.485Z,6.77
2017-06-13T15:39:02.682Z,5.53
2017-06-13T15:41:31.904Z,4.60
2017-06-13T15:44:00.324Z,5.37
2017-06-13T15:46:28.758Z,5.07
2017-06-13T15:48:57.204Z,5.20
2017-06-13T15:51:25.632Z,4.30
2017-06-13T15:53:54.065Z,4.30
2017-06-13T15:56:22.486Z,4.70
2017-06-13T15:58:50.916Z,6.27
2017-06-13T16:01:20.137Z,6.70
2017-06-13T16:03:48.588Z,5.43
2017-06-13T16:06:18.252Z,5.73
2017-06-13T16:08:46.664Z,5.40
2017-06-13T16:11:16.506Z,4.63
2017-06-13T16:13:45.349Z,5.00
2017-06-13T16:16:14.071Z,5.00
2017-06-13T16:18:42.693Z,4.93
2017-06-13T16:21:11.513Z,4.97
2017-06-13T16:23:39.937Z,5.90
2017-06-13T16:26:08.448Z,6.83
2017-06-13T16:28:36.868Z,6.03
2017-06-13T16:31:05.398Z,6.37
2017-06-13T16:33:34.041Z,7.20
2017-06-13T16:36:02.691Z,7.87
2017-06-13T16:38:31.113Z,7.17
2017-06-13T16:41:00.753Z,7.60
2017-06-13T16:43:29.213Z,7.53
2017-06-13T16:45:58.490Z,12.73
2017-06-13T16:48:26.995Z,10.60
2017-06-13T16:50:55.420Z,9.33
2017-06-13T16:53:23.845Z,6.57
2017-06-13T16:55:53.052Z,7.47
2017-06-13T16:58:21.531Z,8.20
2017-06-13T17:00:49.952Z,7.40
2017-06-13T17:03:18.412Z,6.73
2017-06-13T17:05:46.853Z,7.37
2017-06-13T17:08:16.046Z,7.40
2017-06-13T17:10:45.982Z,7.03
2017-06-13T17:13:14.609Z,6.20
2017-06-13T17:15:43.034Z,6.13
2017-06-13T17:18:12.249Z,6.43
2017-06-13T17:20:40.733Z,6.63
2017-06-13T17:23:09.153Z,7.00
2017-06-13T17:25:37.922Z,7.53
2017-06-13T17:28:06.412Z,6.67
2017-06-13T17:30:34.832Z,6.63
2017-06-13T17:33:03.321Z,6.40
2017-06-13T17:35:31.738Z,6.47
2017-06-13T17:38:00.233Z,7.30
2017-06-13T17:40:31.024Z,8.20
2017-06-13T17:42:59.845Z,8.13
2017-06-13T17:45:28.269Z,8.40
2017-06-13T17:47:57.472Z,8.23
2017-06-13T17:50:25.900Z,9.70
2017-06-13T17:52:54.327Z,8.40
2017-06-13T17:55:22.829Z,6.57
2017-06-13T17:57:51.252Z,6.17
2017-06-13T18:00:19.678Z,7.57
2017-06-13T18:02:48.152Z,6.47
2017-06-13T18:05:16.671Z,7.17
2017-06-13T18:07:45.893Z,6.40
2017-06-13T18:10:14.338Z,6.27
2017-06-13T18:12:42.729Z,5.57
2017-06-13T18:15:11.139Z,5.80
2017-06-13T18:17:40.357Z,5.83
2017-06-13T18:20:08.765Z,6.73
2017-06-13T18:22:37.190Z,6.00
2017-06-13T18:25:05.623Z,14.93
2017-06-13T18:27:34.044Z,8.13
2017-06-13T18:30:02.474Z,6.17
2017-06-13T18:32:30.923Z,8.33
2017-06-13T18:35:00.114Z,9.70
2017-06-13T18:37:28.549Z,7.60
2017-06-13T18:39:56.994Z,5.93
2017-06-13T18:42:25.464Z,5.83
2017-06-13T18:44:53.883Z,6.43
2017-06-13T18:47:22.355Z,6.40
2017-06-13T18:49:50.769Z,5.80
2017-06-13T18:52:19.199Z,5.47
2017-06-13T18:54:47.640Z,5.70
2017-06-13T18:57:16.836Z,6.23
2017-06-13T18:59:44.949Z,5.27
2017-06-13T19:02:13.411Z,4.87
2017-06-13T19:04:43.198Z,5.07
2017-06-13T19:07:11.607Z,6.30
2017-06-13T19:09:40.081Z,7.10
2017-06-13T19:12:08.565Z,6.20
2017-06-13T19:14:37.030Z,15.30
2017-06-13T19:17:06.258Z,11.70
2017-06-13T19:19:35.481Z,10.47
2017-06-13T19:22:03.904Z,9.73
2017-06-13T19:24:33.140Z,8.13
2017-06-13T19:27:01.554Z,5.30
2017-06-13T19:29:29.981Z,5.17
2017-06-13T19:31:58.451Z,4.87
2017-06-13T19:34:26.884Z,4.60
2017-06-13T19:36:55.330Z,4.40
2017-06-13T19:39:23.784Z,4.37
2017-06-13T19:41:52.982Z,4.10
2017-06-13T19:44:22.162Z,4.00
2017-06-13T19:46:51.408Z,4.30
2017-06-13T19:49:19.842Z,9.83
2017-06-13T19:51:49.034Z,48.50
2017-06-13T19:54:18.257Z,16.27
2017-06-13T19:56:46.673Z,7.37
2017-06-13T19:59:15.102Z,5.37
2017-06-13T20:01:44.437Z,9.77
2017-06-13T20:04:12.671Z,9.53
2017-06-13T20:06:41.885Z,9.50
2017-06-13T20:09:10.346Z,7.40
2017-06-13T20:11:39.530Z,6.20
2017-06-13T20:14:08.055Z,6.40
2017-06-13T20:16:36.539Z,7.43
2017-06-13T20:19:04.994Z,5.73
2017-06-13T20:21:39.811Z,7.13
2017-06-13T20:24:09.033Z,6.20
2017-06-13T20:26:37.297Z,8.30
2017-06-13T20:29:11.199Z,8.20
2017-06-13T20:31:40.389Z,6.73
2017-06-13T20:34:09.389Z,9.47
2017-06-13T20:36:38.596Z,29.00
2017-06-13T20:39:07.023Z,31.53
2017-06-13T20:41:35.464Z,10.90
2017-06-13T20:44:03.957Z,7.47
2017-06-13T20:46:32.399Z,6.80
2017-06-13T20:49:01.604Z,6.23
2017-06-13T20:51:30.806Z,6.57
2017-06-13T20:53:59.249Z,6.20
2017-06-13T20:56:29.332Z,6.87
2017-06-13T20:58:57.773Z,7.07
2017-06-13T21:01:26.965Z,6.87
2017-06-13T21:03:56.856Z,7.40
2017-06-13T21:06:25.296Z,8.80
2017-06-13T21:08:53.715Z,14.90
2017-06-13T21:11:22.154Z,9.17
2017-06-13T21:13:50.591Z,7.90
2017-06-13T21:16:19.007Z,7.13
2017-06-13T21:18:47.448Z,6.80
2017-06-13T21:21:16.700Z,6.77
2017-06-13T21:23:45.120Z,7.10
2017-06-13T21:26:14.350Z,7.10
2017-06-13T21:28:42.783Z,7.50
2017-06-13T21:31:11.203Z,7.03
2017-06-13T21:33:39.672Z,8.23
2017-06-13T21:36:08.849Z,21.50
2017-06-13T21:38:37.364Z,10.90
2017-06-13T21:41:05.796Z,7.93
2017-06-13T21:43:34.222Z,8.50
2017-06-13T21:46:02.636Z,7.50
2017-06-13T21:48:31.072Z,8.40
2017-06-13T21:50:59.550Z,8.10
2017-06-13T21:53:28.038Z,8.13
2017-06-13T21:55:56.482Z,7.70
2017-06-13T21:58:24.915Z,8.60
2017-06-13T22:00:53.351Z,26.50
2017-06-13T22:03:22.551Z,31.90
2017-06-13T22:05:51.741Z,33.40
2017-06-13T22:08:20.982Z,12.83
2017-06-13T22:10:49.223Z,9.33
2017-06-13T22:13:18.430Z,8.70
2017-06-13T22:15:51.095Z,9.67
2017-06-13T22:18:20.296Z,9.37
2017-06-13T22:20:49.497Z,8.80
2017-06-13T22:23:18.696Z,8.90
2017-06-13T22:25:47.112Z,9.30
2017-06-13T22:28:15.536Z,8.87
2017-06-13T22:30:44.760Z,7.83
2017-06-13T22:33:13.184Z,9.10
2017-06-13T22:35:41.601Z,8.47
2017-06-13T22:38:10.914Z,8.83
2017-06-13T22:40:39.351Z,9.30
2017-06-13T22:43:07.760Z,9.40
2017-06-13T22:45:36.958Z,9.70
2017-06-13T22:48:06.138Z,9.93
2017-06-13T22:50:34.550Z,10.03
2017-06-13T22:53:02.981Z,10.00
2017-06-13T22:55:31.427Z,10.43
2017-06-13T22:57:59.867Z,10.40
2017-06-13T23:00:29.168Z,10.47
2017-06-13T23:02:58.356Z,10.07
2017-06-13T23:05:27.532Z,9.73
2017-06-13T23:07:56.008Z,9.80
2017-06-13T23:10:24.424Z,9.90
2017-06-13T23:12:53.612Z,9.77
2017-06-13T23:15:22.824Z,10.33
2017-06-13T23:17:51.243Z,11.00
2017-06-13T23:20:19.732Z,11.00
2017-06-13T23:22:48.182Z,10.20
2017-06-13T23:25:16.632Z,10.00
2017-06-13T23:27:45.051Z,9.47
2017-06-13T23:30:13.488Z,10.50
2017-06-13T23:32:42.684Z,9.93
2017-06-13T23:35:11.877Z,9.30
2017-06-13T23:37:41.081Z,10.83
2017-06-13T23:40:10.273Z,10.60
2017-06-13T23:42:39.470Z,10.90
2017-06-13T23:45:08.705Z,9.77
2017-06-13T23:47:37.128Z,10.60
2017-06-13T23:50:05.564Z,9.53
2017-06-13T23:52:34.004Z,11.67
2017-06-13T23:55:03.191Z,10.90
2017-06-13T23:57:32.407Z,11.00
